sensor_id;sensor_type;location;lat;lon;timestamp;pressure;altitude;pressure_sealevel;temperature;humidity
69593;BME280;56796;50.122;14.468;2023-12-07T00:17:57;980.43;;;0.2;100
69593;BME280;56796;50.122;14.468;2023-12-07T00:37:24;980.56;;;0.19;100
69593;BME280;56796;50.122;14.468;2023-12-07T00:56:51;980.63;;;0.23;100
69593;BME280;56796;50.122;14.468;2023-12-07T01:16:18;980.82;;;0.39;100
69593;BME280;56796;50.122;14.468;2023-12-07T01:35:44;980.74;;;0.6;100
69593;BME280;56796;50.122;14.468;2023-12-07T01:55:10;980.81;;;0.74;100
69593;BME280;56796;50.122;14.468;2023-12-07T02:14:37;980.96;;;0.8;100
69593;BME280;56796;50.122;14.468;2023-12-07T02:34:04;980.98;;;0.79;100
69593;BME280;56796;50.122;14.468;2023-12-07T02:53:30;981.19;;;0.93;100
69593;BME280;56796;50.122;14.468;2023-12-07T03:12:56;981.35;;;0.96;100
69593;BME280;56796;50.122;14.468;2023-12-07T03:32:23;981.48;;;1.01;100
69593;BME280;56796;50.122;14.468;2023-12-07T03:51:49;981.67;;;1;100
69593;BME280;56796;50.122;14.468;2023-12-07T04:11:16;981.82;;;1.05;100
69593;BME280;56796;50.122;14.468;2023-12-07T04:30:42;981.88;;;1.04;100
69593;BME280;56796;50.122;14.468;2023-12-07T04:50:09;982.07;;;1.1;100
69593;BME280;56796;50.122;14.468;2023-12-07T05:09:36;982.14;;;1.09;100
69593;BME280;56796;50.122;14.468;2023-12-07T05:29:03;982.33;;;1.11;100
69593;BME280;56796;50.122;14.468;2023-12-07T05:48:27;982.43;;;1.12;100
69593;BME280;56796;50.122;14.468;2023-12-07T06:07:53;982.53;;;1.16;100
69593;BME280;56796;50.122;14.468;2023-12-07T06:27:19;982.57;;;1.2;100
69593;BME280;56796;50.122;14.468;2023-12-07T06:46:45;982.81;;;1.22;100
69593;BME280;56796;50.122;14.468;2023-12-07T07:06:11;982.89;;;1.24;100
69593;BME280;56796;50.122;14.468;2023-12-07T07:25:39;983.03;;;1.29;100
69593;BME280;56796;50.122;14.468;2023-12-07T07:44:58;983.12;;;1.39;100
69593;BME280;56796;50.122;14.468;2023-12-07T08:04:23;983.24;;;1.49;100
69593;BME280;56796;50.122;14.468;2023-12-07T08:23:57;983.28;;;1.62;100
69593;BME280;56796;50.122;14.468;2023-12-07T08:43:10;983.3;;;1.78;100
69593;BME280;56796;50.122;14.468;2023-12-07T09:02:38;983.45;;;1.87;100
69593;BME280;56796;50.122;14.468;2023-12-07T09:22:04;983.56;;;1.86;100
69593;BME280;56796;50.122;14.468;2023-12-07T09:41:30;983.55;;;1.97;100
69593;BME280;56796;50.122;14.468;2023-12-07T10:00:56;983.52;;;2.08;99.89
69593;BME280;56796;50.122;14.468;2023-12-07T10:20:23;983.44;;;2.17;99.05
69593;BME280;56796;50.122;14.468;2023-12-07T10:39:49;983.42;;;2.29;98.81
69593;BME280;56796;50.122;14.468;2023-12-07T10:59:16;983.39;;;2.41;97.71
69593;BME280;56796;50.122;14.468;2023-12-07T11:18:43;983.35;;;2.53;96.44
69593;BME280;56796;50.122;14.468;2023-12-07T11:38:10;983.38;;;2.42;95.09
69593;BME280;56796;50.122;14.468;2023-12-07T11:57:36;983.35;;;2.52;94.12
69593;BME280;56796;50.122;14.468;2023-12-07T12:17:03;983.21;;;2.48;93.5
69593;BME280;56796;50.122;14.468;2023-12-07T12:36:29;983.21;;;2.4;92.48
69593;BME280;56796;50.122;14.468;2023-12-07T12:55:55;983.24;;;2.24;92.36
69593;BME280;56796;50.122;14.468;2023-12-07T13:15:21;983.13;;;2.11;92.75
69593;BME280;56796;50.122;14.468;2023-12-07T13:34:46;983.1;;;2.03;91.92
69593;BME280;56796;50.122;14.468;2023-12-07T13:54:12;983.01;;;1.9;92.1
69593;BME280;56796;50.122;14.468;2023-12-07T14:13:38;983.25;;;1.79;92.5
69593;BME280;56796;50.122;14.468;2023-12-07T14:33:03;983.31;;;1.71;93.25
69593;BME280;56796;50.122;14.468;2023-12-07T14:52:28;983.21;;;1.67;93.83
69593;BME280;56796;50.122;14.468;2023-12-07T15:11:53;983.2;;;1.69;93.89
69593;BME280;56796;50.122;14.468;2023-12-07T15:31:19;983.18;;;1.71;93.89
69593;BME280;56796;50.122;14.468;2023-12-07T15:50:46;983.29;;;1.71;94.1
69593;BME280;56796;50.122;14.468;2023-12-07T16:10:12;983.27;;;1.69;94.44
69593;BME280;56796;50.122;14.468;2023-12-07T16:29:38;983.14;;;1.68;94.83
69593;BME280;56796;50.122;14.468;2023-12-07T16:49:05;983.05;;;1.68;95.04
69593;BME280;56796;50.122;14.468;2023-12-07T17:08:31;983.22;;;1.67;95.31
69593;BME280;56796;50.122;14.468;2023-12-07T17:27:58;983.19;;;1.65;95.58
69593;BME280;56796;50.122;14.468;2023-12-07T17:47:24;983.36;;;1.6;96.08
69593;BME280;56796;50.122;14.468;2023-12-07T18:06:51;983.31;;;1.63;97.23
69593;BME280;56796;50.122;14.468;2023-12-07T18:26:18;983.36;;;1.58;97.7
69593;BME280;56796;50.122;14.468;2023-12-07T18:45:44;983.12;;;1.58;98.08
69593;BME280;56796;50.122;14.468;2023-12-07T19:05:10;983.14;;;1.44;98.64
69593;BME280;56796;50.122;14.468;2023-12-07T19:24:35;982.91;;;1.35;98.67
69593;BME280;56796;50.122;14.468;2023-12-07T19:44:05;982.95;;;1.29;98.68
69593;BME280;56796;50.122;14.468;2023-12-07T20:03:23;982.68;;;1.26;98.57
69593;BME280;56796;50.122;14.468;2023-12-07T20:22:50;982.39;;;1.21;98.99
69593;BME280;56796;50.122;14.468;2023-12-07T20:42:16;982.12;;;1.14;99.17
69593;BME280;56796;50.122;14.468;2023-12-07T21:01:41;981.87;;;1;99.76
69593;BME280;56796;50.122;14.468;2023-12-07T21:21:07;981.82;;;0.92;100
69593;BME280;56796;50.122;14.468;2023-12-07T21:40:34;981.84;;;0.89;100
69593;BME280;56796;50.122;14.468;2023-12-07T22:00:00;981.49;;;0.82;100
69593;BME280;56796;50.122;14.468;2023-12-07T22:19:25;981.37;;;0.83;100
69593;BME280;56796;50.122;14.468;2023-12-07T22:38:53;981.28;;;0.75;100
69593;BME280;56796;50.122;14.468;2023-12-07T22:58:12;981.39;;;0.73;99.79
69593;BME280;56796;50.122;14.468;2023-12-07T23:17:39;981.53;;;0.78;99.34
69593;BME280;56796;50.122;14.468;2023-12-07T23:37:05;981.34;;;0.8;98.8
69593;BME280;56796;50.122;14.468;2023-12-07T23:56:31;981.21;;;0.91;95.99
